createdAt,value
2022-08-17T00:00:01.572Z,99924.56
2022-08-17T00:02:29.231Z,99924.13
2022-08-17T00:04:58.018Z,99926.19
2022-08-17T00:07:24.871Z,99924.94
2022-08-17T00:09:51.842Z,99923.09
2022-08-17T00:12:41.675Z,99916.56
2022-08-17T00:15:10.754Z,99926.25
2022-08-17T00:17:38.367Z,99927.75
2022-08-17T00:20:06.424Z,99934.75
2022-08-17T00:22:36.563Z,99924.50
2022-08-17T00:25:14.146Z,99920.34
2022-08-17T00:27:41.462Z,99920.81
2022-08-17T00:30:11.728Z,99912.47
2022-08-17T00:33:11.855Z,99919.19
2022-08-17T00:35:34.957Z,99915.75
2022-08-17T00:38:01.891Z,99918.88
2022-08-17T00:40:40.015Z,99923.38
2022-08-17T00:43:41.479Z,99929.38
2022-08-17T00:46:26.403Z,99929.78
2022-08-17T00:48:53.296Z,99921.19
2022-08-17T00:51:44.804Z,99916.28
2022-08-17T00:54:41.927Z,99929.88
2022-08-17T00:57:16.509Z,99917.66
2022-08-17T01:00:02.415Z,99915.59
2022-08-17T01:02:42.222Z,99916.03
2022-08-17T01:05:18.569Z,99925.03
2022-08-17T01:07:48.114Z,99920.31
2022-08-17T01:10:58.995Z,99922.66
2022-08-17T01:13:05.081Z,99920.78
2022-08-17T01:15:37.352Z,99918.56
2022-08-17T01:18:11.387Z,99917.97
2022-08-17T01:20:48.966Z,99925.13
2022-08-17T01:23:20.641Z,99916.16
2022-08-17T01:25:56.279Z,99912.47
2022-08-17T01:28:36.498Z,99929.91
2022-08-17T01:31:13.637Z,99905.53
2022-08-17T01:33:41.547Z,99908.19
2022-08-17T01:36:09.244Z,99911.25
2022-08-17T01:38:38.447Z,99913.75
2022-08-17T01:41:16.468Z,99903.88
2022-08-17T01:44:05.571Z,99906.75
2022-08-17T01:46:37.431Z,99909.41
2022-08-17T01:49:11.431Z,99903.69
2022-08-17T01:51:39.371Z,99909.41
2022-08-17T01:54:12.800Z,99921.69
2022-08-17T01:56:47.398Z,99912.69
2022-08-17T01:59:16.834Z,99910.22
2022-08-17T02:01:44.887Z,99913.47
2022-08-17T02:04:13.629Z,99911.03
2022-08-17T02:06:52.959Z,99904.31
2022-08-17T02:09:29.944Z,99905.53
2022-08-17T02:11:59.947Z,99903.28
2022-08-17T02:14:46.813Z,99900.81
2022-08-17T02:17:13.989Z,99905.31
2022-08-17T02:19:41.218Z,99904.94
2022-08-17T02:22:08.626Z,99911.69
2022-08-17T02:24:59.634Z,99915.97
2022-08-17T02:27:24.831Z,99921.31
2022-08-17T02:29:51.953Z,99922.59
2022-08-17T02:32:27.975Z,99927.09
2022-08-17T02:35:01.359Z,99925.88
2022-08-17T02:37:29.871Z,99940.41
2022-08-17T02:39:58.509Z,99931.81
2022-08-17T02:42:31.508Z,99922.38
2022-08-17T02:44:59.063Z,99931.41
2022-08-17T02:47:26.843Z,99923.63
2022-08-17T02:49:55.733Z,99925.06
2022-08-17T02:52:42.926Z,99924.00
2022-08-17T02:55:36.165Z,99920.56
2022-08-17T02:58:03.680Z,99926.47
2022-08-17T03:00:38.272Z,99922.59
2022-08-17T03:03:06.238Z,99919.72
2022-08-17T03:05:36.328Z,99917.44
2022-08-17T03:08:05.216Z,99919.72
2022-08-17T03:10:32.235Z,99919.28
2022-08-17T03:12:59.701Z,99919.31
2022-08-17T03:15:31.479Z,99921.31
2022-08-17T03:17:59.924Z,99926.03
2022-08-17T03:20:30.147Z,99923.19
2022-08-17T03:23:01.807Z,99914.75
2022-08-17T03:25:38.675Z,99921.75
2022-08-17T03:28:06.423Z,99914.75
2022-08-17T03:30:34.852Z,99906.16
2022-08-17T03:33:04.724Z,99915.56
2022-08-17T03:35:34.796Z,99912.72
2022-08-17T03:38:01.769Z,99906.56
2022-08-17T03:40:34.465Z,99906.97
2022-08-17T03:43:19.059Z,99901.25
2022-08-17T03:46:04.313Z,99902.09
2022-08-17T03:48:51.337Z,99897.19
2022-08-17T03:51:41.852Z,99895.91
2022-08-17T03:54:29.013Z,99900.84
2022-08-17T03:57:09.462Z,99900.06
2022-08-17T03:59:37.806Z,99899.88
2022-08-17T04:02:11.125Z,99893.72
2022-08-17T04:04:39.024Z,99895.31
2022-08-17T04:07:06.864Z,99900.66
2022-08-17T04:09:34.037Z,99908.03
2022-08-17T04:12:04.519Z,99929.31
2022-08-17T04:14:39.352Z,99947.94
2022-08-17T04:17:28.526Z,99973.97
2022-08-17T04:19:56.392Z,100013.84
2022-08-17T04:22:32.789Z,100015.56
2022-08-17T04:25:06.285Z,99993.91
2022-08-17T04:27:33.366Z,99993.94
2022-08-17T04:30:00.940Z,99993.94
2022-08-17T04:33:03.436Z,100009.13
2022-08-17T04:35:20.190Z,100010.53
2022-08-17T04:37:47.407Z,99999.44
2022-08-17T04:40:32.668Z,99990.28
2022-08-17T04:43:05.479Z,99999.50
2022-08-17T04:45:33.076Z,99977.84
2022-08-17T04:48:01.431Z,99986.44
2022-08-17T04:50:28.418Z,99999.53
2022-08-17T04:52:55.669Z,99998.91
2022-08-17T04:55:22.927Z,99977.22
2022-08-17T04:57:49.801Z,99995.84
2022-08-17T05:00:16.864Z,100004.44
2022-08-17T05:02:51.014Z,99997.91
2022-08-17T05:05:40.177Z,100006.50
2022-08-17T05:08:07.894Z,100000.75
2022-08-17T05:10:37.481Z,99994.00
2022-08-17T05:13:25.404Z,100008.13
2022-08-17T05:15:59.874Z,99978.63
2022-08-17T05:18:29.593Z,99980.06
2022-08-17T05:20:57.320Z,99998.47
2022-08-17T05:23:27.117Z,99988.03
2022-08-17T05:26:04.094Z,99991.94
2022-08-17T05:28:34.666Z,100007.47
2022-08-17T05:31:03.726Z,99994.38
2022-08-17T05:33:36.496Z,99997.00
2022-08-17T05:36:09.164Z,100009.66
2022-08-17T05:38:56.130Z,100005.53
2022-08-17T05:41:23.101Z,100011.84
2022-08-17T05:43:54.297Z,100023.06
2022-08-17T05:46:27.836Z,100022.50
2022-08-17T05:49:08.026Z,100012.81
2022-08-17T05:51:55.712Z,100008.53
2022-08-17T05:54:48.965Z,99999.34
2022-08-17T05:57:43.550Z,100002.50
2022-08-17T06:00:37.343Z,99991.94
2022-08-17T06:03:30.080Z,99981.09
2022-08-17T06:06:33.631Z,99988.34
2022-08-17T06:09:30.107Z,99988.28
2022-08-17T06:12:37.314Z,99985.75
2022-08-17T06:15:26.226Z,99991.88
2022-08-17T06:18:00.101Z,99990.19
2022-08-17T06:20:36.095Z,99997.66
2022-08-17T06:23:14.361Z,99988.53
2022-08-17T06:25:48.831Z,99998.25
2022-08-17T06:28:37.108Z,99996.84
2022-08-17T06:31:15.334Z,99986.22
2022-08-17T06:33:46.305Z,99983.41
2022-08-17T06:37:03.624Z,99986.50
2022-08-17T06:40:21.440Z,99987.97
2022-08-17T06:43:13.608Z,100019.41
2022-08-17T06:46:11.410Z,100021.53
2022-08-17T06:48:57.870Z,100027.63
2022-08-17T06:51:39.530Z,100031.50
2022-08-17T06:54:20.554Z,100034.63
2022-08-17T06:57:02.463Z,100036.44
2022-08-17T06:59:54.936Z,100016.34
2022-08-17T07:02:51.240Z,100015.13
2022-08-17T07:05:34.365Z,100020.66
2022-08-17T07:08:38.288Z,100032.00
2022-08-17T07:11:48.274Z,100034.13
2022-08-17T07:14:44.442Z,100059.31
2022-08-17T07:17:15.856Z,100047.81
2022-08-17T07:19:46.065Z,100052.94
2022-08-17T07:22:59.554Z,100034.53
2022-08-17T07:25:28.513Z,100033.31
2022-08-17T07:28:00.190Z,100032.25
2022-08-17T07:30:47.110Z,100030.84
2022-08-17T07:33:20.275Z,100025.91
2022-08-17T07:35:49.776Z,100020.16
2022-08-17T07:38:24.800Z,100042.88
2022-08-17T07:41:01.865Z,100063.56
2022-08-17T07:43:39.813Z,100057.63
2022-08-17T07:46:40.734Z,100052.88
2022-08-17T07:49:10.371Z,100058.06
2022-08-17T07:51:43.164Z,100064.22
2022-08-17T07:54:15.557Z,100066.84
2022-08-17T07:57:12.104Z,100063.38
2022-08-17T08:00:12.682Z,100035.72
2022-08-17T08:02:47.520Z,100022.56
2022-08-17T08:05:44.316Z,100025.44
2022-08-17T08:08:42.148Z,100035.03
2022-08-17T08:11:15.729Z,100031.59
2022-08-17T08:13:45.541Z,100037.53
2022-08-17T08:16:21.983Z,100046.75
2022-08-17T08:18:56.735Z,100055.78
2022-08-17T08:21:52.100Z,100050.47
2022-08-17T08:24:52.386Z,100046.13
2022-08-17T08:27:34.036Z,100076.25
2022-08-17T08:30:15.387Z,100069.84
2022-08-17T08:33:29.973Z,100047.88
2022-08-17T08:37:14.295Z,100063.28
2022-08-17T08:39:56.884Z,100061.84
2022-08-17T08:42:52.198Z,100056.91
2022-08-17T08:46:01.753Z,100061.19
2022-08-17T08:49:10.362Z,100069.84
2022-08-17T08:52:00.582Z,100072.19
2022-08-17T08:54:38.665Z,100077.78
2022-08-17T08:57:26.739Z,100087.16
2022-08-17T09:00:15.076Z,100093.69
2022-08-17T09:03:02.543Z,100105.47
2022-08-17T09:06:37.799Z,100103.69
2022-08-17T09:09:29.191Z,100083.53
2022-08-17T09:12:25.941Z,100080.09
2022-08-17T09:15:13.100Z,100088.63
2022-08-17T09:19:01.391Z,100087.13
2022-08-17T09:21:01.622Z,100078.38
2022-08-17T09:23:39.247Z,100081.16
2022-08-17T09:26:25.690Z,100094.59
2022-08-17T09:29:01.659Z,100120.91
2022-08-17T09:32:03.502Z,100139.09
2022-08-17T09:34:50.017Z,100127.75
2022-08-17T09:37:29.737Z,100123.50
2022-08-17T09:40:12.270Z,100116.38
2022-08-17T09:43:09.840Z,100116.53
2022-08-17T09:45:57.246Z,100108.88
2022-08-17T09:48:50.160Z,100095.72
2022-08-17T09:51:37.118Z,100114.41
2022-08-17T09:54:37.992Z,100132.94
2022-08-17T09:57:31.472Z,100131.13
2022-08-17T10:00:11.269Z,100125.66
2022-08-17T10:03:34.458Z,100145.22
2022-08-17T10:06:22.091Z,100159.53
2022-08-17T10:09:42.801Z,100152.63
2022-08-17T10:12:30.171Z,100141.94
2022-08-17T10:15:15.999Z,100132.84
2022-08-17T10:18:08.949Z,100128.00
2022-08-17T10:21:21.848Z,100148.00
2022-08-17T10:24:25.007Z,100146.56
2022-08-17T10:26:56.675Z,100154.06
2022-08-17T10:29:51.565Z,100158.03
2022-08-17T10:32:41.384Z,100161.81
2022-08-17T10:35:39.051Z,100160.47
2022-08-17T10:38:37.196Z,100165.41
2022-08-17T10:41:29.438Z,100163.56
2022-08-17T10:44:38.119Z,100160.34
2022-08-17T10:47:15.032Z,100157.59
2022-08-17T10:49:53.434Z,100151.34
2022-08-17T10:52:20.199Z,100144.44
2022-08-17T10:54:51.884Z,100141.47
2022-08-17T10:57:33.915Z,100142.22
2022-08-17T11:00:35.081Z,100137.78
2022-08-17T11:03:02.523Z,100149.59
2022-08-17T11:05:59.717Z,100152.91
2022-08-17T11:08:52.537Z,100149.13
2022-08-17T11:11:40.451Z,100152.50
2022-08-17T11:14:57.933Z,100158.22
2022-08-17T11:17:27.486Z,100166.25
2022-08-17T11:20:20.079Z,100162.56
2022-08-17T11:23:14.591Z,100167.69
2022-08-17T11:25:50.344Z,100171.31
2022-08-17T11:28:23.410Z,100165.13
2022-08-17T11:30:58.857Z,100164.06
2022-08-17T11:33:29.998Z,100169.66
2022-08-17T11:36:31.530Z,100163.94
2022-08-17T11:39:15.925Z,100165.47
2022-08-17T11:42:11.807Z,100172.47
2022-08-17T11:45:32.336Z,100165.38
2022-08-17T11:48:48.310Z,100153.47
2022-08-17T11:51:35.809Z,100159.34
2022-08-17T11:54:34.164Z,100144.91
2022-08-17T11:57:26.949Z,100149.25
2022-08-17T12:00:10.804Z,100162.00
2022-08-17T12:02:48.846Z,100158.09
2022-08-17T12:05:19.333Z,100154.03
2022-08-17T12:07:52.619Z,100152.41
2022-08-17T12:10:31.825Z,100162.13
2022-08-17T12:13:15.907Z,100164.78
2022-08-17T12:15:49.923Z,100155.59
2022-08-17T12:18:35.483Z,100149.66
2022-08-17T12:21:25.343Z,100147.84
2022-08-17T12:24:06.696Z,100148.97
2022-08-17T12:26:36.759Z,100144.97
2022-08-17T12:29:18.240Z,100154.22
2022-08-17T12:32:03.107Z,100148.72
2022-08-17T12:34:40.531Z,100155.69
2022-08-17T12:37:23.133Z,100145.94
2022-08-17T12:39:59.360Z,100139.13
2022-08-17T12:42:37.389Z,100136.31
2022-08-17T12:45:23.353Z,100142.63
2022-08-17T12:48:07.793Z,100128.38
2022-08-17T12:50:45.029Z,100121.97
2022-08-17T12:53:16.203Z,100119.16
2022-08-17T12:55:44.309Z,100125.09
2022-08-17T12:58:14.659Z,100123.78
2022-08-17T13:00:49.702Z,100119.31
2022-08-17T13:03:22.737Z,100111.84
2022-08-17T13:05:52.548Z,100112.81
2022-08-17T13:08:30.539Z,100112.66
2022-08-17T13:11:09.336Z,100099.28
2022-08-17T13:13:49.023Z,100093.91
2022-08-17T13:16:28.050Z,100088.16
2022-08-17T13:19:08.583Z,100093.25
2022-08-17T13:21:37.930Z,100090.47
2022-08-17T13:24:16.583Z,100090.47
2022-08-17T13:27:01.575Z,100085.09
2022-08-17T13:29:45.739Z,100087.63
2022-08-17T13:32:43.662Z,100079.16
2022-08-17T13:35:43.615Z,100079.78
2022-08-17T13:38:49.466Z,100083.38
2022-08-17T13:41:37.850Z,100088.31
2022-08-17T13:44:31.551Z,100079.78
2022-08-17T13:46:59.611Z,100073.56
2022-08-17T13:49:41.507Z,100063.91
2022-08-17T13:52:40.187Z,100060.72
2022-08-17T13:55:22.782Z,100073.41
2022-08-17T13:58:03.589Z,100071.69
2022-08-17T14:00:36.695Z,100058.84
2022-08-17T14:03:05.715Z,100052.91
2022-08-17T14:05:33.793Z,100060.44
2022-08-17T14:08:06.995Z,100053.66
2022-08-17T14:10:36.327Z,100061.91
2022-08-17T14:13:04.623Z,100045.69
2022-08-17T14:15:54.601Z,100050.00
2022-08-17T14:18:35.611Z,100052.16
2022-08-17T14:21:08.372Z,100040.72
2022-08-17T14:23:36.881Z,100033.06
2022-08-17T14:26:04.702Z,100034.63
2022-08-17T14:28:32.052Z,100039.09
2022-08-17T14:31:01.116Z,100034.47
2022-08-17T14:33:29.007Z,100029.59
2022-08-17T14:35:57.558Z,100036.34
2022-08-17T14:38:24.828Z,100036.78
2022-08-17T14:40:52.411Z,100021.34
2022-08-17T14:43:20.398Z,100021.06
2022-08-17T14:45:47.501Z,100022.19
2022-08-17T14:48:14.476Z,100015.91
2022-08-17T14:50:42.754Z,100022.59
2022-08-17T14:53:13.821Z,100023.63
2022-08-17T14:55:40.967Z,100022.00
2022-08-17T14:58:09.078Z,100016.03
2022-08-17T15:00:37.437Z,100006.03
2022-08-17T15:03:05.307Z,100007.25
2022-08-17T15:05:36.508Z,100013.81
2022-08-17T15:08:05.413Z,100011.28
2022-08-17T15:10:32.656Z,100015.31
2022-08-17T15:13:00.386Z,100006.94
2022-08-17T15:15:28.709Z,100006.94
2022-08-17T15:17:56.253Z,100011.94
2022-08-17T15:20:28.080Z,100012.50
2022-08-17T15:22:57.486Z,100006.16
2022-08-17T15:25:27.677Z,100013.25
2022-08-17T15:27:55.842Z,100018.09
2022-08-17T15:30:23.710Z,100009.25
2022-08-17T15:32:54.269Z,100011.75
2022-08-17T15:35:27.514Z,100008.84
2022-08-17T15:38:10.790Z,100014.38
2022-08-17T15:40:44.838Z,100016.63
2022-08-17T15:43:24.790Z,100008.78
2022-08-17T15:46:14.332Z,100001.34
2022-08-17T15:48:44.464Z,100000.34
2022-08-17T15:51:17.952Z,100002.56
2022-08-17T15:54:04.610Z,100004.59
2022-08-17T15:56:46.240Z,99998.63
2022-08-17T15:59:13.253Z,100000.09
2022-08-17T16:02:33.627Z,100013.41
2022-08-17T16:04:30.918Z,100013.22
2022-08-17T16:06:59.730Z,100011.84
2022-08-17T16:09:27.502Z,100009.94
2022-08-17T16:11:55.883Z,100003.22
2022-08-17T16:14:33.654Z,100007.16
2022-08-17T16:17:03.490Z,100007.03
2022-08-17T16:19:30.907Z,99997.75
2022-08-17T16:21:57.995Z,100002.00
2022-08-17T16:24:25.298Z,100006.09
2022-08-17T16:26:52.147Z,100008.19
2022-08-17T16:29:19.051Z,100004.13
2022-08-17T16:31:45.901Z,100004.53
2022-08-17T16:34:17.044Z,100011.19
2022-08-17T16:36:54.869Z,100004.59
2022-08-17T16:39:27.598Z,100007.22
2022-08-17T16:41:55.945Z,99997.28
2022-08-17T16:44:23.143Z,99992.41
2022-08-17T16:46:50.527Z,99983.59
2022-08-17T16:49:35.658Z,99986.47
2022-08-17T16:52:07.730Z,99989.28
2022-08-17T16:54:35.415Z,99984.41
2022-08-17T16:57:04.903Z,99982.84
2022-08-17T16:59:40.800Z,99990.22
2022-08-17T17:02:13.781Z,99988.00
2022-08-17T17:04:50.329Z,99985.13
2022-08-17T17:07:37.512Z,99987.41
2022-08-17T17:10:17.284Z,99990.06
2022-08-17T17:13:02.745Z,99982.97
2022-08-17T17:15:51.886Z,99976.94
2022-08-17T17:18:28.439Z,99980.19
2022-08-17T17:20:57.399Z,99976.69
2022-08-17T17:23:39.764Z,99974.56
2022-08-17T17:26:43.176Z,99975.81
2022-08-17T17:29:20.474Z,99983.88
2022-08-17T17:32:13.561Z,99967.00
2022-08-17T17:35:00.040Z,99965.75
2022-08-17T17:37:33.533Z,99962.72
2022-08-17T17:40:29.045Z,99952.41
2022-08-17T17:43:09.476Z,99961.09
2022-08-17T17:45:47.548Z,99954.09
2022-08-17T17:48:14.398Z,99949.56
2022-08-17T17:51:09.858Z,99954.59
2022-08-17T17:53:51.744Z,99949.69
2022-08-17T17:56:43.248Z,99955.53
2022-08-17T17:59:41.845Z,99958.38
2022-08-17T18:02:52.241Z,99950.31
2022-08-17T18:05:37.340Z,99957.47
2022-08-17T18:08:14.110Z,99946.06
2022-08-17T18:10:55.649Z,99937.91
2022-08-17T18:14:02.989Z,99937.81
2022-08-17T18:16:32.917Z,99938.53
2022-08-17T18:19:00.434Z,99946.47
2022-08-17T18:21:44.344Z,99949.06
2022-08-17T18:24:12.598Z,99947.91
2022-08-17T18:26:55.487Z,99958.25
2022-08-17T18:29:34.448Z,99956.31
2022-08-17T18:32:31.837Z,99958.06
2022-08-17T18:35:10.754Z,99955.31
2022-08-17T18:38:20.394Z,99956.78
2022-08-17T18:41:02.941Z,99962.31
2022-08-17T18:43:53.210Z,99972.66
2022-08-17T18:46:36.709Z,99984.91
2022-08-17T18:49:28.732Z,99989.06
2022-08-17T18:52:30.567Z,100003.97
2022-08-17T18:55:24.125Z,100005.94
2022-08-17T18:57:56.193Z,99997.56
2022-08-17T19:00:43.824Z,100005.25
2022-08-17T19:03:17.847Z,100005.16
2022-08-17T19:05:53.080Z,99999.41
2022-08-17T19:08:29.006Z,100007.09
2022-08-17T19:10:59.793Z,100013.41
2022-08-17T19:13:47.454Z,100019.78
2022-08-17T19:16:51.319Z,100016.31
2022-08-17T19:19:46.548Z,100021.28
2022-08-17T19:22:31.008Z,100023.63
2022-08-17T19:25:12.646Z,100019.78
2022-08-17T19:28:04.011Z,100018.38
2022-08-17T19:30:39.501Z,100021.28
2022-08-17T19:33:10.496Z,100019.88
2022-08-17T19:36:10.565Z,100012.28
2022-08-17T19:39:17.413Z,100014.34
2022-08-17T19:42:28.361Z,100019.38
2022-08-17T19:45:08.577Z,100021.31
2022-08-17T19:48:04.327Z,100020.72
2022-08-17T19:50:50.459Z,100021.66
2022-08-17T19:53:54.145Z,100032.13
2022-08-17T19:56:57.863Z,100019.22
2022-08-17T19:59:37.458Z,100028.81
2022-08-17T20:02:22.761Z,100021.72
2022-08-17T20:04:53.499Z,100024.00
2022-08-17T20:07:46.447Z,100022.84
2022-08-17T20:10:48.102Z,100026.56
2022-08-17T20:13:33.673Z,100019.22
2022-08-17T20:16:02.998Z,100018.72
2022-08-17T20:19:03.971Z,100021.97
2022-08-17T20:21:54.384Z,100020.25
2022-08-17T20:24:37.179Z,100020.31
2022-08-17T20:27:31.297Z,100012.91
2022-08-17T20:30:06.236Z,100014.69
2022-08-17T20:32:55.532Z,100014.91
2022-08-17T20:36:11.181Z,100011.06
2022-08-17T20:38:44.824Z,100006.97
2022-08-17T20:41:28.119Z,100014.84
2022-08-17T20:43:58.705Z,100010.38
2022-08-17T20:46:37.529Z,100018.41
2022-08-17T20:49:41.221Z,100022.03
2022-08-17T20:52:35.451Z,100012.72
2022-08-17T20:55:04.474Z,100010.69
2022-08-17T20:57:31.561Z,100021.38
2022-08-17T21:00:17.492Z,100022.88
2022-08-17T21:02:49.519Z,100027.03
2022-08-17T21:06:17.054Z,100021.53
2022-08-17T21:08:57.824Z,100017.22
2022-08-17T21:11:56.793Z,100019.59
2022-08-17T21:14:40.189Z,100017.44
2022-08-17T21:17:18.773Z,100025.81
2022-08-17T21:20:22.792Z,100020.72
2022-08-17T21:23:21.772Z,100026.09
2022-08-17T21:26:50.582Z,100020.94
2022-08-17T21:29:31.359Z,100034.81
2022-08-17T21:32:06.191Z,100035.88
2022-08-17T21:34:42.536Z,100041.50
2022-08-17T21:37:29.382Z,100043.34
2022-08-17T21:40:10.092Z,100046.66
2022-08-17T21:42:47.667Z,100036.78
2022-08-17T21:45:32.263Z,100045.84
2022-08-17T21:48:19.602Z,100044.78
2022-08-17T21:51:12.038Z,100050.94
2022-08-17T21:53:54.187Z,100044.84
2022-08-17T21:56:32.008Z,100054.50
2022-08-17T21:59:05.541Z,100060.25
2022-08-17T22:01:42.943Z,100061.13
2022-08-17T22:04:12.690Z,100055.78
2022-08-17T22:06:52.349Z,100042.16
2022-08-17T22:09:49.917Z,100045.94
2022-08-17T22:12:20.348Z,100048.78
2022-08-17T22:14:57.421Z,100054.16
2022-08-17T22:17:28.205Z,100065.22
2022-08-17T22:20:21.521Z,100067.50
2022-08-17T22:23:07.146Z,100064.88
2022-08-17T22:25:41.813Z,100077.41
2022-08-17T22:28:12.097Z,100085.84
2022-08-17T22:30:59.869Z,100091.16
2022-08-17T22:33:51.621Z,100100.56
2022-08-17T22:36:29.513Z,100121.31
2022-08-17T22:39:26.309Z,100103.25
2022-08-17T22:41:57.109Z,100117.06
2022-08-17T22:44:31.875Z,100122.78
2022-08-17T22:47:11.336Z,100125.22
2022-08-17T22:50:00.991Z,100127.34
2022-08-17T22:53:21.269Z,100128.66
2022-08-17T22:56:16.226Z,100130.63
2022-08-17T22:59:14.814Z,100132.34
2022-08-17T23:01:45.327Z,100131.06
2022-08-17T23:04:36.215Z,100135.81
2022-08-17T23:07:03.125Z,100142.16
2022-08-17T23:09:29.982Z,100150.00
2022-08-17T23:11:58.656Z,100158.22
2022-08-17T23:14:31.578Z,100174.16
2022-08-17T23:16:59.341Z,100171.69
2022-08-17T23:19:27.539Z,100176.22
2022-08-17T23:21:56.471Z,100177.03
2022-08-17T23:24:29.422Z,100179.69
2022-08-17T23:26:58.051Z,100181.97
2022-08-17T23:29:29.134Z,100186.28
2022-08-17T23:31:59.748Z,100189.56
2022-08-17T23:34:28.007Z,100186.53
2022-08-17T23:36:55.955Z,100180.59
2022-08-17T23:39:24.727Z,100186.19
2022-08-17T23:41:58.054Z,100197.00
2022-08-17T23:44:26.047Z,100203.22
2022-08-17T23:46:53.743Z,100198.88
2022-08-17T23:49:20.758Z,100197.88
2022-08-17T23:51:48.862Z,100199.69
2022-08-17T23:54:43.483Z,100192.50
2022-08-17T23:57:13.648Z,100193.09
2022-08-17T23:59:40.854Z,100189.78
